Northgate, North Dakota
Current Conditions -  °F | °C
As of 11:00 PM on Friday 24 Oct 2014 (Local Time) from CYEN Reporting Station
Clear Clear  
Wind Chill: 32°   Ceiling: Unl
Heat Index: 39°   Visibility: 15mi
Dew Point: 30°   Wind: 10mph
Humidity: 70%   Direction: 280°W
Pressure: 30"   Gusts: NA
Location:  48.9165°N, 102.302°W
Report Text: CYEN 250400Z 28009KT 15SM SKC 04/M01 A3000 RMK SLP173
Loading
Personal Weather Stations






























Interactive Weather Map
Tropical Storm Tracking
New forecast layout! Learn more

10-Day Weather Forecast

Advertisements
Track Severe Weather on mobile